sensor_id;sensor_type;location;lat;lon;timestamp;temperature;humidity
43651;DHT22;29247;50.944;5.382;2024-01-30T00:02:16;21.40;55.40
43651;DHT22;29247;50.944;5.382;2024-01-30T00:04:42;21.40;55.50
43651;DHT22;29247;50.944;5.382;2024-01-30T00:07:10;21.40;55.50
43651;DHT22;29247;50.944;5.382;2024-01-30T00:09:36;21.40;55.50
43651;DHT22;29247;50.944;5.382;2024-01-30T00:12:04;21.40;55.60
43651;DHT22;29247;50.944;5.382;2024-01-30T00:14:30;21.40;55.60
43651;DHT22;29247;50.944;5.382;2024-01-30T00:16:55;21.30;55.60
43651;DHT22;29247;50.944;5.382;2024-01-30T00:19:21;21.30;55.60
43651;DHT22;29247;50.944;5.382;2024-01-30T00:21:47;21.30;55.60
43651;DHT22;29247;50.944;5.382;2024-01-30T00:24:20;21.30;55.60
43651;DHT22;29247;50.944;5.382;2024-01-30T00:26:45;21.30;55.70
43651;DHT22;29247;50.944;5.382;2024-01-30T00:29:12;21.30;55.70
43651;DHT22;29247;50.944;5.382;2024-01-30T00:31:37;21.30;55.70
43651;DHT22;29247;50.944;5.382;2024-01-30T00:34:03;21.20;55.70
43651;DHT22;29247;50.944;5.382;2024-01-30T00:36:29;21.20;55.80
43651;DHT22;29247;50.944;5.382;2024-01-30T00:38:55;21.20;55.80
43651;DHT22;29247;50.944;5.382;2024-01-30T00:41:21;21.20;55.80
43651;DHT22;29247;50.944;5.382;2024-01-30T00:43:47;21.20;55.90
43651;DHT22;29247;50.944;5.382;2024-01-30T00:46:12;21.20;56.00
43651;DHT22;29247;50.944;5.382;2024-01-30T00:48:38;21.20;55.90
43651;DHT22;29247;50.944;5.382;2024-01-30T00:51:06;21.10;55.90
43651;DHT22;29247;50.944;5.382;2024-01-30T00:53:32;21.10;55.90
43651;DHT22;29247;50.944;5.382;2024-01-30T00:55:57;21.10;56.00
43651;DHT22;29247;50.944;5.382;2024-01-30T00:58:23;21.10;56.00
43651;DHT22;29247;50.944;5.382;2024-01-30T01:00:49;21.10;56.00
43651;DHT22;29247;50.944;5.382;2024-01-30T01:03:14;21.10;56.00
43651;DHT22;29247;50.944;5.382;2024-01-30T01:05:40;21.10;56.10
43651;DHT22;29247;50.944;5.382;2024-01-30T01:08:06;21.10;56.10
43651;DHT22;29247;50.944;5.382;2024-01-30T01:10:31;21.00;56.10
43651;DHT22;29247;50.944;5.382;2024-01-30T01:12:57;21.00;56.20
43651;DHT22;29247;50.944;5.382;2024-01-30T01:15:23;21.00;56.10
43651;DHT22;29247;50.944;5.382;2024-01-30T01:17:48;21.00;56.20
43651;DHT22;29247;50.944;5.382;2024-01-30T01:20:14;21.00;56.20
43651;DHT22;29247;50.944;5.382;2024-01-30T01:22:40;21.00;56.20
43651;DHT22;29247;50.944;5.382;2024-01-30T01:25:06;21.00;56.30
43651;DHT22;29247;50.944;5.382;2024-01-30T01:27:33;20.90;56.30
43651;DHT22;29247;50.944;5.382;2024-01-30T01:30:00;20.90;56.30
43651;DHT22;29247;50.944;5.382;2024-01-30T01:32:25;20.90;56.30
43651;DHT22;29247;50.944;5.382;2024-01-30T01:34:51;20.90;56.40
43651;DHT22;29247;50.944;5.382;2024-01-30T01:37:17;20.90;56.40
43651;DHT22;29247;50.944;5.382;2024-01-30T01:39:43;20.90;56.40
43651;DHT22;29247;50.944;5.382;2024-01-30T01:42:09;20.90;56.40
43651;DHT22;29247;50.944;5.382;2024-01-30T01:44:34;20.90;56.50
43651;DHT22;29247;50.944;5.382;2024-01-30T01:47:02;20.90;56.50
43651;DHT22;29247;50.944;5.382;2024-01-30T01:49:29;20.80;56.50
43651;DHT22;29247;50.944;5.382;2024-01-30T01:51:58;20.80;56.60
43651;DHT22;29247;50.944;5.382;2024-01-30T01:54:27;20.80;56.50
43651;DHT22;29247;50.944;5.382;2024-01-30T01:56:53;20.80;56.60
43651;DHT22;29247;50.944;5.382;2024-01-30T01:59:22;20.80;56.60
43651;DHT22;29247;50.944;5.382;2024-01-30T02:01:51;20.80;56.90
43651;DHT22;29247;50.944;5.382;2024-01-30T02:04:18;20.80;56.70
43651;DHT22;29247;50.944;5.382;2024-01-30T02:06:44;20.80;56.70
43651;DHT22;29247;50.944;5.382;2024-01-30T02:09:10;20.80;56.70
43651;DHT22;29247;50.944;5.382;2024-01-30T02:11:36;20.80;56.70
43651;DHT22;29247;50.944;5.382;2024-01-30T02:14:05;20.80;56.80
43651;DHT22;29247;50.944;5.382;2024-01-30T02:16:31;20.70;56.70
43651;DHT22;29247;50.944;5.382;2024-01-30T02:18:57;20.70;56.80
43651;DHT22;29247;50.944;5.382;2024-01-30T02:21:23;20.70;56.90
43651;DHT22;29247;50.944;5.382;2024-01-30T02:23:50;20.70;56.90
43651;DHT22;29247;50.944;5.382;2024-01-30T02:26:17;20.70;56.90
43651;DHT22;29247;50.944;5.382;2024-01-30T02:28:43;20.70;56.90
43651;DHT22;29247;50.944;5.382;2024-01-30T02:31:08;20.70;57.00
43651;DHT22;29247;50.944;5.382;2024-01-30T02:33:34;20.70;57.00
43651;DHT22;29247;50.944;5.382;2024-01-30T02:36:00;20.70;57.10
43651;DHT22;29247;50.944;5.382;2024-01-30T02:38:26;20.60;57.10
43651;DHT22;29247;50.944;5.382;2024-01-30T02:40:52;20.60;57.10
43651;DHT22;29247;50.944;5.382;2024-01-30T02:43:18;20.60;57.20
43651;DHT22;29247;50.944;5.382;2024-01-30T02:45:43;20.60;57.20
43651;DHT22;29247;50.944;5.382;2024-01-30T02:48:09;20.60;57.20
43651;DHT22;29247;50.944;5.382;2024-01-30T02:50:35;20.60;57.30
43651;DHT22;29247;50.944;5.382;2024-01-30T02:53:00;20.60;57.30
43651;DHT22;29247;50.944;5.382;2024-01-30T02:55:26;20.60;57.30
43651;DHT22;29247;50.944;5.382;2024-01-30T02:57:52;20.50;57.30
43651;DHT22;29247;50.944;5.382;2024-01-30T03:00:19;20.50;57.40
43651;DHT22;29247;50.944;5.382;2024-01-30T03:02:47;20.50;57.40
43651;DHT22;29247;50.944;5.382;2024-01-30T03:05:13;20.50;57.40
43651;DHT22;29247;50.944;5.382;2024-01-30T03:07:38;20.50;57.40
43651;DHT22;29247;50.944;5.382;2024-01-30T03:10:05;20.50;57.50
43651;DHT22;29247;50.944;5.382;2024-01-30T03:12:33;20.50;57.50
43651;DHT22;29247;50.944;5.382;2024-01-30T03:14:59;20.50;57.50
43651;DHT22;29247;50.944;5.382;2024-01-30T03:17:24;20.50;57.50
43651;DHT22;29247;50.944;5.382;2024-01-30T03:19:50;20.50;57.50
43651;DHT22;29247;50.944;5.382;2024-01-30T03:22:16;20.40;57.50
43651;DHT22;29247;50.944;5.382;2024-01-30T03:24:46;20.40;57.60
43651;DHT22;29247;50.944;5.382;2024-01-30T03:27:12;20.40;57.50
43651;DHT22;29247;50.944;5.382;2024-01-30T03:29:37;20.40;57.60
43651;DHT22;29247;50.944;5.382;2024-01-30T03:32:05;20.40;57.60
43651;DHT22;29247;50.944;5.382;2024-01-30T03:34:31;20.40;57.70
43651;DHT22;29247;50.944;5.382;2024-01-30T03:36:57;20.40;57.80
43651;DHT22;29247;50.944;5.382;2024-01-30T03:39:27;20.40;57.80
43651;DHT22;29247;50.944;5.382;2024-01-30T03:41:52;20.40;57.90
43651;DHT22;29247;50.944;5.382;2024-01-30T03:44:20;20.40;57.90
43651;DHT22;29247;50.944;5.382;2024-01-30T03:46:46;20.40;58.00
43651;DHT22;29247;50.944;5.382;2024-01-30T03:49:11;20.40;58.00
43651;DHT22;29247;50.944;5.382;2024-01-30T03:51:39;20.50;58.00
43651;DHT22;29247;50.944;5.382;2024-01-30T03:54:05;20.40;58.00
43651;DHT22;29247;50.944;5.382;2024-01-30T03:56:35;20.50;58.00
43651;DHT22;29247;50.944;5.382;2024-01-30T03:59:03;20.50;58.00
43651;DHT22;29247;50.944;5.382;2024-01-30T04:01:29;20.50;58.00
43651;DHT22;29247;50.944;5.382;2024-01-30T04:03:54;20.50;58.00
43651;DHT22;29247;50.944;5.382;2024-01-30T04:06:22;20.50;57.90
43651;DHT22;29247;50.944;5.382;2024-01-30T04:08:50;20.50;57.90
43651;DHT22;29247;50.944;5.382;2024-01-30T04:11:18;20.60;57.90
43651;DHT22;29247;50.944;5.382;2024-01-30T04:13:45;20.60;57.80
43651;DHT22;29247;50.944;5.382;2024-01-30T04:16:20;20.60;57.80
43651;DHT22;29247;50.944;5.382;2024-01-30T04:18:46;20.60;57.80
43651;DHT22;29247;50.944;5.382;2024-01-30T04:21:14;20.60;57.80
43651;DHT22;29247;50.944;5.382;2024-01-30T04:23:42;20.60;57.70
43651;DHT22;29247;50.944;5.382;2024-01-30T04:26:08;20.60;57.70
43651;DHT22;29247;50.944;5.382;2024-01-30T04:28:36;20.60;57.60
43651;DHT22;29247;50.944;5.382;2024-01-30T04:31:02;20.70;57.70
43651;DHT22;29247;50.944;5.382;2024-01-30T04:33:27;20.70;57.70
43651;DHT22;29247;50.944;5.382;2024-01-30T04:35:53;20.70;57.70
43651;DHT22;29247;50.944;5.382;2024-01-30T04:38:20;20.70;57.60
43651;DHT22;29247;50.944;5.382;2024-01-30T04:40:49;20.70;57.60
43651;DHT22;29247;50.944;5.382;2024-01-30T04:43:14;20.70;57.50
43651;DHT22;29247;50.944;5.382;2024-01-30T04:45:41;20.70;57.60
43651;DHT22;29247;50.944;5.382;2024-01-30T04:48:11;20.70;57.60
43651;DHT22;29247;50.944;5.382;2024-01-30T04:50:39;20.60;57.50
43651;DHT22;29247;50.944;5.382;2024-01-30T04:53:05;20.70;57.60
43651;DHT22;29247;50.944;5.382;2024-01-30T04:55:31;20.60;57.50
43651;DHT22;29247;50.944;5.382;2024-01-30T04:57:56;20.60;57.50
43651;DHT22;29247;50.944;5.382;2024-01-30T05:00:22;20.60;57.50
43651;DHT22;29247;50.944;5.382;2024-01-30T05:02:50;20.60;57.60
43651;DHT22;29247;50.944;5.382;2024-01-30T05:05:15;20.60;57.60
43651;DHT22;29247;50.944;5.382;2024-01-30T05:07:42;20.60;57.60
43651;DHT22;29247;50.944;5.382;2024-01-30T05:10:08;20.60;58.20
43651;DHT22;29247;50.944;5.382;2024-01-30T05:12:33;20.60;57.60
43651;DHT22;29247;50.944;5.382;2024-01-30T05:14:59;20.60;57.60
43651;DHT22;29247;50.944;5.382;2024-01-30T05:17:25;20.50;57.60
43651;DHT22;29247;50.944;5.382;2024-01-30T05:19:50;20.50;57.60
43651;DHT22;29247;50.944;5.382;2024-01-30T05:22:16;20.50;57.70
43651;DHT22;29247;50.944;5.382;2024-01-30T05:24:44;20.50;57.60
43651;DHT22;29247;50.944;5.382;2024-01-30T05:27:09;20.50;57.70
43651;DHT22;29247;50.944;5.382;2024-01-30T05:29:35;20.50;57.80
43651;DHT22;29247;50.944;5.382;2024-01-30T05:32:01;20.50;57.80
43651;DHT22;29247;50.944;5.382;2024-01-30T05:34:31;20.50;57.80
43651;DHT22;29247;50.944;5.382;2024-01-30T05:36:57;20.50;57.90
43651;DHT22;29247;50.944;5.382;2024-01-30T05:39:23;20.50;57.90
43651;DHT22;29247;50.944;5.382;2024-01-30T05:41:48;20.50;57.90
43651;DHT22;29247;50.944;5.382;2024-01-30T05:44:14;20.50;58.00
43651;DHT22;29247;50.944;5.382;2024-01-30T05:46:39;20.50;58.00
43651;DHT22;29247;50.944;5.382;2024-01-30T05:49:05;20.50;58.00
43651;DHT22;29247;50.944;5.382;2024-01-30T05:51:31;20.50;58.00
43651;DHT22;29247;50.944;5.382;2024-01-30T05:53:57;20.50;58.00
43651;DHT22;29247;50.944;5.382;2024-01-30T05:56:25;20.60;58.10
43651;DHT22;29247;50.944;5.382;2024-01-30T05:58:50;20.60;58.10
43651;DHT22;29247;50.944;5.382;2024-01-30T06:01:16;20.60;58.10
43651;DHT22;29247;50.944;5.382;2024-01-30T06:03:42;20.60;58.10
43651;DHT22;29247;50.944;5.382;2024-01-30T06:06:09;20.60;58.10
43651;DHT22;29247;50.944;5.382;2024-01-30T06:08:34;20.70;58.20
43651;DHT22;29247;50.944;5.382;2024-01-30T06:11:00;20.70;58.40
43651;DHT22;29247;50.944;5.382;2024-01-30T06:13:26;20.70;58.50
43651;DHT22;29247;50.944;5.382;2024-01-30T06:15:52;20.70;58.70
43651;DHT22;29247;50.944;5.382;2024-01-30T06:18:18;20.70;58.80
43651;DHT22;29247;50.944;5.382;2024-01-30T06:20:43;20.80;58.80
43651;DHT22;29247;50.944;5.382;2024-01-30T06:23:09;20.80;58.80
43651;DHT22;29247;50.944;5.382;2024-01-30T06:25:35;20.80;58.80
43651;DHT22;29247;50.944;5.382;2024-01-30T06:28:01;20.80;59.00
43651;DHT22;29247;50.944;5.382;2024-01-30T06:30:26;20.80;59.40
43651;DHT22;29247;50.944;5.382;2024-01-30T06:32:54;20.90;59.80
43651;DHT22;29247;50.944;5.382;2024-01-30T06:35:20;20.90;60.10
43651;DHT22;29247;50.944;5.382;2024-01-30T06:37:46;21.00;60.20
43651;DHT22;29247;50.944;5.382;2024-01-30T06:40:12;21.00;60.10
43651;DHT22;29247;50.944;5.382;2024-01-30T06:42:40;21.00;60.00
43651;DHT22;29247;50.944;5.382;2024-01-30T06:45:06;21.00;59.80
43651;DHT22;29247;50.944;5.382;2024-01-30T06:47:38;21.00;59.70
43651;DHT22;29247;50.944;5.382;2024-01-30T06:50:03;21.10;59.70
43651;DHT22;29247;50.944;5.382;2024-01-30T06:52:29;21.10;59.70
43651;DHT22;29247;50.944;5.382;2024-01-30T06:54:57;21.10;59.70
43651;DHT22;29247;50.944;5.382;2024-01-30T06:57:22;21.10;59.90
43651;DHT22;29247;50.944;5.382;2024-01-30T06:59:48;21.10;60.00
43651;DHT22;29247;50.944;5.382;2024-01-30T07:02:14;21.10;59.90
43651;DHT22;29247;50.944;5.382;2024-01-30T07:04:39;21.20;60.00
43651;DHT22;29247;50.944;5.382;2024-01-30T07:07:06;21.20;59.90
43651;DHT22;29247;50.944;5.382;2024-01-30T07:09:37;21.20;59.90
43651;DHT22;29247;50.944;5.382;2024-01-30T07:12:02;21.20;59.90
43651;DHT22;29247;50.944;5.382;2024-01-30T07:14:28;21.20;59.90
43651;DHT22;29247;50.944;5.382;2024-01-30T07:16:54;21.20;59.80
43651;DHT22;29247;50.944;5.382;2024-01-30T07:19:19;21.10;59.60
43651;DHT22;29247;50.944;5.382;2024-01-30T07:21:47;21.20;59.80
43651;DHT22;29247;50.944;5.382;2024-01-30T07:24:13;21.20;59.90
43651;DHT22;29247;50.944;5.382;2024-01-30T07:26:39;21.10;60.00
43651;DHT22;29247;50.944;5.382;2024-01-30T07:29:05;21.10;60.20
43651;DHT22;29247;50.944;5.382;2024-01-30T07:31:32;21.20;60.50
43651;DHT22;29247;50.944;5.382;2024-01-30T07:33:58;21.10;60.60
43651;DHT22;29247;50.944;5.382;2024-01-30T07:36:24;21.10;60.80
43651;DHT22;29247;50.944;5.382;2024-01-30T07:38:51;21.10;60.90
43651;DHT22;29247;50.944;5.382;2024-01-30T07:41:19;21.10;61.20
43651;DHT22;29247;50.944;5.382;2024-01-30T07:43:45;21.10;61.40
43651;DHT22;29247;50.944;5.382;2024-01-30T07:46:10;21.10;61.70
43651;DHT22;29247;50.944;5.382;2024-01-30T07:48:36;21.10;61.90
43651;DHT22;29247;50.944;5.382;2024-01-30T07:51:04;21.10;62.10
43651;DHT22;29247;50.944;5.382;2024-01-30T07:53:30;21.10;62.20
43651;DHT22;29247;50.944;5.382;2024-01-30T07:55:56;21.10;62.00
43651;DHT22;29247;50.944;5.382;2024-01-30T07:58:21;21.10;61.50
43651;DHT22;29247;50.944;5.382;2024-01-30T08:00:49;21.00;61.20
43651;DHT22;29247;50.944;5.382;2024-01-30T08:03:15;21.00;61.20
43651;DHT22;29247;50.944;5.382;2024-01-30T08:05:42;21.00;61.20
43651;DHT22;29247;50.944;5.382;2024-01-30T08:08:12;21.00;61.10
43651;DHT22;29247;50.944;5.382;2024-01-30T08:10:37;21.00;61.20
43651;DHT22;29247;50.944;5.382;2024-01-30T08:13:06;21.00;61.30
43651;DHT22;29247;50.944;5.382;2024-01-30T08:15:31;21.00;61.20
43651;DHT22;29247;50.944;5.382;2024-01-30T08:17:57;21.00;61.30
43651;DHT22;29247;50.944;5.382;2024-01-30T08:20:24;20.90;61.40
43651;DHT22;29247;50.944;5.382;2024-01-30T08:22:50;21.00;61.70
43651;DHT22;29247;50.944;5.382;2024-01-30T08:25:15;20.90;62.10
43651;DHT22;29247;50.944;5.382;2024-01-30T08:27:41;21.00;62.70
43651;DHT22;29247;50.944;5.382;2024-01-30T08:30:07;21.00;63.10
43651;DHT22;29247;50.944;5.382;2024-01-30T08:32:33;21.00;63.30
43651;DHT22;29247;50.944;5.382;2024-01-30T08:34:59;21.00;63.50
43651;DHT22;29247;50.944;5.382;2024-01-30T08:37:25;21.00;63.80
43651;DHT22;29247;50.944;5.382;2024-01-30T08:39:53;21.00;63.90
43651;DHT22;29247;50.944;5.382;2024-01-30T08:42:19;21.00;64.00
43651;DHT22;29247;50.944;5.382;2024-01-30T08:44:48;21.00;64.10
43651;DHT22;29247;50.944;5.382;2024-01-30T08:47:14;21.00;64.40
43651;DHT22;29247;50.944;5.382;2024-01-30T08:49:42;21.10;65.60
43651;DHT22;29247;50.944;5.382;2024-01-30T08:52:12;21.10;66.30
43651;DHT22;29247;50.944;5.382;2024-01-30T08:54:40;21.10;66.30
43651;DHT22;29247;50.944;5.382;2024-01-30T08:57:08;21.00;66.30
43651;DHT22;29247;50.944;5.382;2024-01-30T08:59:36;21.00;66.30
43651;DHT22;29247;50.944;5.382;2024-01-30T09:02:02;20.90;66.30
43651;DHT22;29247;50.944;5.382;2024-01-30T09:04:28;20.90;66.30
43651;DHT22;29247;50.944;5.382;2024-01-30T09:06:56;20.90;66.20
43651;DHT22;29247;50.944;5.382;2024-01-30T09:09:22;20.90;66.10
43651;DHT22;29247;50.944;5.382;2024-01-30T09:11:50;20.90;66.00
43651;DHT22;29247;50.944;5.382;2024-01-30T09:14:18;20.80;65.90
43651;DHT22;29247;50.944;5.382;2024-01-30T09:16:44;20.80;65.80
43651;DHT22;29247;50.944;5.382;2024-01-30T09:19:10;20.80;65.80
43651;DHT22;29247;50.944;5.382;2024-01-30T09:21:36;20.80;65.80
43651;DHT22;29247;50.944;5.382;2024-01-30T09:24:03;20.80;65.70
43651;DHT22;29247;50.944;5.382;2024-01-30T09:26:31;20.80;65.60
43651;DHT22;29247;50.944;5.382;2024-01-30T09:28:57;20.80;65.70
43651;DHT22;29247;50.944;5.382;2024-01-30T09:31:22;20.70;65.80
43651;DHT22;29247;50.944;5.382;2024-01-30T09:33:48;20.70;65.70
43651;DHT22;29247;50.944;5.382;2024-01-30T09:36:14;20.70;65.70
43651;DHT22;29247;50.944;5.382;2024-01-30T09:38:45;20.70;65.70
43651;DHT22;29247;50.944;5.382;2024-01-30T09:41:13;20.70;65.60
43651;DHT22;29247;50.944;5.382;2024-01-30T09:43:40;20.70;65.70
43651;DHT22;29247;50.944;5.382;2024-01-30T09:46:09;20.70;65.70
43651;DHT22;29247;50.944;5.382;2024-01-30T09:48:37;20.70;65.60
43651;DHT22;29247;50.944;5.382;2024-01-30T09:51:03;20.70;65.60
43651;DHT22;29247;50.944;5.382;2024-01-30T09:53:31;20.60;65.50
43651;DHT22;29247;50.944;5.382;2024-01-30T09:55:57;20.60;65.50
43651;DHT22;29247;50.944;5.382;2024-01-30T09:58:23;20.60;65.40
43651;DHT22;29247;50.944;5.382;2024-01-30T10:00:48;20.60;65.40
43651;DHT22;29247;50.944;5.382;2024-01-30T10:03:14;20.60;65.30
43651;DHT22;29247;50.944;5.382;2024-01-30T10:05:40;20.60;65.20
43651;DHT22;29247;50.944;5.382;2024-01-30T10:08:07;20.60;65.20
43651;DHT22;29247;50.944;5.382;2024-01-30T10:10:35;20.60;65.20
43651;DHT22;29247;50.944;5.382;2024-01-30T10:13:01;20.60;65.10
43651;DHT22;29247;50.944;5.382;2024-01-30T10:15:28;20.60;65.10
43651;DHT22;29247;50.944;5.382;2024-01-30T10:17:54;20.60;65.30
43651;DHT22;29247;50.944;5.382;2024-01-30T10:20:20;20.60;65.20
43651;DHT22;29247;50.944;5.382;2024-01-30T10:22:48;20.60;65.20
43651;DHT22;29247;50.944;5.382;2024-01-30T10:25:15;20.60;65.20
43651;DHT22;29247;50.944;5.382;2024-01-30T10:27:43;20.60;65.20
43651;DHT22;29247;50.944;5.382;2024-01-30T10:30:09;20.60;65.40
43651;DHT22;29247;50.944;5.382;2024-01-30T10:32:37;20.60;65.60
43651;DHT22;29247;50.944;5.382;2024-01-30T10:35:05;20.60;65.40
43651;DHT22;29247;50.944;5.382;2024-01-30T10:37:31;20.60;65.10
43651;DHT22;29247;50.944;5.382;2024-01-30T10:40:02;20.60;64.90
43651;DHT22;29247;50.944;5.382;2024-01-30T10:42:32;20.60;64.70
43651;DHT22;29247;50.944;5.382;2024-01-30T10:47:30;20.60;64.50
43651;DHT22;29247;50.944;5.382;2024-01-30T10:49:56;20.60;64.30
43651;DHT22;29247;50.944;5.382;2024-01-30T10:52:23;20.60;64.30
43651;DHT22;29247;50.944;5.382;2024-01-30T10:54:54;20.60;64.40
43651;DHT22;29247;50.944;5.382;2024-01-30T10:57:22;20.60;64.60
43651;DHT22;29247;50.944;5.382;2024-01-30T10:59:48;20.60;64.80
43651;DHT22;29247;50.944;5.382;2024-01-30T11:02:15;20.60;64.90
43651;DHT22;29247;50.944;5.382;2024-01-30T11:04:41;20.60;64.90
43651;DHT22;29247;50.944;5.382;2024-01-30T11:07:16;20.50;64.90
43651;DHT22;29247;50.944;5.382;2024-01-30T11:09:53;20.50;65.00
43651;DHT22;29247;50.944;5.382;2024-01-30T11:12:23;20.50;65.10
43651;DHT22;29247;50.944;5.382;2024-01-30T11:15:01;20.50;65.30
43651;DHT22;29247;50.944;5.382;2024-01-30T11:17:28;20.50;65.30
43651;DHT22;29247;50.944;5.382;2024-01-30T11:19:54;20.50;65.50
43651;DHT22;29247;50.944;5.382;2024-01-30T11:22:22;20.50;65.70
43651;DHT22;29247;50.944;5.382;2024-01-30T11:24:50;20.50;65.80
43651;DHT22;29247;50.944;5.382;2024-01-30T11:27:16;20.50;65.90
43651;DHT22;29247;50.944;5.382;2024-01-30T11:29:49;20.50;65.90
43651;DHT22;29247;50.944;5.382;2024-01-30T11:32:22;20.50;66.00
43651;DHT22;29247;50.944;5.382;2024-01-30T11:34:49;20.50;66.80
43651;DHT22;29247;50.944;5.382;2024-01-30T11:37:16;20.50;65.90
43651;DHT22;29247;50.944;5.382;2024-01-30T11:39:46;20.60;65.90
43651;DHT22;29247;50.944;5.382;2024-01-30T11:42:12;20.60;65.90
43651;DHT22;29247;50.944;5.382;2024-01-30T11:44:39;20.60;65.80
43651;DHT22;29247;50.944;5.382;2024-01-30T11:47:04;20.60;65.70
43651;DHT22;29247;50.944;5.382;2024-01-30T11:49:30;20.70;65.70
43651;DHT22;29247;50.944;5.382;2024-01-30T11:51:56;20.70;65.60
43651;DHT22;29247;50.944;5.382;2024-01-30T11:54:21;20.70;65.50
43651;DHT22;29247;50.944;5.382;2024-01-30T11:56:47;20.80;65.50
43651;DHT22;29247;50.944;5.382;2024-01-30T11:59:13;20.80;65.30
43651;DHT22;29247;50.944;5.382;2024-01-30T12:01:39;20.80;65.20
43651;DHT22;29247;50.944;5.382;2024-01-30T12:04:05;20.80;65.00
43651;DHT22;29247;50.944;5.382;2024-01-30T12:06:34;20.90;65.00
43651;DHT22;29247;50.944;5.382;2024-01-30T12:09:02;20.90;64.80
43651;DHT22;29247;50.944;5.382;2024-01-30T12:11:31;20.90;64.70
43651;DHT22;29247;50.944;5.382;2024-01-30T12:13:57;21.00;64.60
43651;DHT22;29247;50.944;5.382;2024-01-30T12:16:23;21.00;64.50
43651;DHT22;29247;50.944;5.382;2024-01-30T12:18:49;21.00;64.40
43651;DHT22;29247;50.944;5.382;2024-01-30T12:21:18;21.10;64.60
43651;DHT22;29247;50.944;5.382;2024-01-30T12:23:46;21.10;64.20
43651;DHT22;29247;50.944;5.382;2024-01-30T12:26:13;21.10;64.10
43651;DHT22;29247;50.944;5.382;2024-01-30T12:28:50;21.10;63.90
43651;DHT22;29247;50.944;5.382;2024-01-30T12:31:16;21.20;63.90
43651;DHT22;29247;50.944;5.382;2024-01-30T12:33:44;21.20;63.80
43651;DHT22;29247;50.944;5.382;2024-01-30T12:36:11;21.20;63.70
43651;DHT22;29247;50.944;5.382;2024-01-30T12:38:37;21.30;63.60
43651;DHT22;29247;50.944;5.382;2024-01-30T12:41:03;21.30;63.50
43651;DHT22;29247;50.944;5.382;2024-01-30T12:43:31;21.30;63.50
43651;DHT22;29247;50.944;5.382;2024-01-30T12:45:59;21.30;63.40
43651;DHT22;29247;50.944;5.382;2024-01-30T12:48:28;21.30;63.40
43651;DHT22;29247;50.944;5.382;2024-01-30T12:50:55;21.30;63.40
43651;DHT22;29247;50.944;5.382;2024-01-30T12:53:21;21.40;63.50
43651;DHT22;29247;50.944;5.382;2024-01-30T12:55:47;21.40;63.40
43651;DHT22;29247;50.944;5.382;2024-01-30T12:58:15;21.40;63.60
43651;DHT22;29247;50.944;5.382;2024-01-30T13:00:41;21.40;63.50
43651;DHT22;29247;50.944;5.382;2024-01-30T13:03:09;21.50;63.50
43651;DHT22;29247;50.944;5.382;2024-01-30T13:05:35;21.50;63.50
43651;DHT22;29247;50.944;5.382;2024-01-30T13:08:01;21.50;63.50
43651;DHT22;29247;50.944;5.382;2024-01-30T13:10:26;21.50;63.50
43651;DHT22;29247;50.944;5.382;2024-01-30T13:12:52;21.50;63.50
43651;DHT22;29247;50.944;5.382;2024-01-30T13:15:18;21.50;63.50
43651;DHT22;29247;50.944;5.382;2024-01-30T13:17:44;21.50;63.50
43651;DHT22;29247;50.944;5.382;2024-01-30T13:20:14;21.50;63.70
43651;DHT22;29247;50.944;5.382;2024-01-30T13:22:43;21.50;63.40
43651;DHT22;29247;50.944;5.382;2024-01-30T13:25:09;21.60;63.40
43651;DHT22;29247;50.944;5.382;2024-01-30T13:27:35;21.60;63.40
43651;DHT22;29247;50.944;5.382;2024-01-30T13:30:03;21.60;63.40
43651;DHT22;29247;50.944;5.382;2024-01-30T13:32:29;21.60;63.30
43651;DHT22;29247;50.944;5.382;2024-01-30T13:34:57;21.60;63.30
43651;DHT22;29247;50.944;5.382;2024-01-30T13:37:23;21.60;63.30
43651;DHT22;29247;50.944;5.382;2024-01-30T13:39:48;21.60;63.30
43651;DHT22;29247;50.944;5.382;2024-01-30T13:42:14;21.70;63.30
43651;DHT22;29247;50.944;5.382;2024-01-30T13:44:40;21.70;63.30
43651;DHT22;29247;50.944;5.382;2024-01-30T13:47:05;21.70;63.20
43651;DHT22;29247;50.944;5.382;2024-01-30T13:49:31;21.70;63.20
43651;DHT22;29247;50.944;5.382;2024-01-30T13:51:56;21.70;63.20
43651;DHT22;29247;50.944;5.382;2024-01-30T13:54:26;21.70;63.10
43651;DHT22;29247;50.944;5.382;2024-01-30T13:56:51;21.70;63.10
43651;DHT22;29247;50.944;5.382;2024-01-30T13:59:17;21.70;63.10
43651;DHT22;29247;50.944;5.382;2024-01-30T14:01:48;21.70;63.00
43651;DHT22;29247;50.944;5.382;2024-01-30T14:04:14;21.70;63.00
43651;DHT22;29247;50.944;5.382;2024-01-30T14:06:42;21.70;62.90
43651;DHT22;29247;50.944;5.382;2024-01-30T14:09:08;21.80;63.00
43651;DHT22;29247;50.944;5.382;2024-01-30T14:11:34;21.80;62.90
43651;DHT22;29247;50.944;5.382;2024-01-30T14:14:00;21.80;62.90
43651;DHT22;29247;50.944;5.382;2024-01-30T14:16:28;21.80;62.90
43651;DHT22;29247;50.944;5.382;2024-01-30T14:18:56;21.80;62.90
43651;DHT22;29247;50.944;5.382;2024-01-30T14:21:22;21.80;62.80
43651;DHT22;29247;50.944;5.382;2024-01-30T14:23:50;21.80;62.80
43651;DHT22;29247;50.944;5.382;2024-01-30T14:26:15;21.80;62.70
43651;DHT22;29247;50.944;5.382;2024-01-30T14:28:43;21.80;62.80
43651;DHT22;29247;50.944;5.382;2024-01-30T14:31:11;21.80;62.70
43651;DHT22;29247;50.944;5.382;2024-01-30T14:33:36;21.80;62.70
43651;DHT22;29247;50.944;5.382;2024-01-30T14:36:04;21.80;62.70
43651;DHT22;29247;50.944;5.382;2024-01-30T14:38:30;21.80;62.80
43651;DHT22;29247;50.944;5.382;2024-01-30T14:40:56;21.80;62.80
43651;DHT22;29247;50.944;5.382;2024-01-30T14:43:23;21.80;62.90
43651;DHT22;29247;50.944;5.382;2024-01-30T14:45:53;21.80;63.20
43651;DHT22;29247;50.944;5.382;2024-01-30T14:48:21;21.80;63.00
43651;DHT22;29247;50.944;5.382;2024-01-30T14:50:47;21.80;63.10
43651;DHT22;29247;50.944;5.382;2024-01-30T14:53:12;21.70;63.10
43651;DHT22;29247;50.944;5.382;2024-01-30T14:55:38;21.70;63.20
43651;DHT22;29247;50.944;5.382;2024-01-30T14:58:04;21.70;63.20
43651;DHT22;29247;50.944;5.382;2024-01-30T15:00:29;21.70;63.30
43651;DHT22;29247;50.944;5.382;2024-01-30T15:02:55;21.70;63.30
43651;DHT22;29247;50.944;5.382;2024-01-30T15:05:21;21.70;63.40
43651;DHT22;29247;50.944;5.382;2024-01-30T15:07:47;21.70;63.50
43651;DHT22;29247;50.944;5.382;2024-01-30T15:10:12;21.70;64.30
43651;DHT22;29247;50.944;5.382;2024-01-30T15:12:40;21.70;63.60
43651;DHT22;29247;50.944;5.382;2024-01-30T15:15:07;21.70;63.70
43651;DHT22;29247;50.944;5.382;2024-01-30T15:17:33;21.70;63.70
43651;DHT22;29247;50.944;5.382;2024-01-30T15:19:59;21.60;63.70
43651;DHT22;29247;50.944;5.382;2024-01-30T15:22:25;21.60;63.70
43651;DHT22;29247;50.944;5.382;2024-01-30T15:24:51;21.60;63.70
43651;DHT22;29247;50.944;5.382;2024-01-30T15:27:17;21.60;63.70
43651;DHT22;29247;50.944;5.382;2024-01-30T15:29:45;21.60;63.70